• Join FlightAware (Why Join?)
  • Login
  • US Flag 
11:49PM EDT


 

Airport Tracker/Info


-or-


 

Live Flight TrackerFlight Track Log ✈ N1944E ✈ 18-Oct-2013 ✈ KCOD - KBIL

Flight Track Log - Related Links

Times and Time Zones

All times are in EDT time to prevent confusion due to time zone crossing. See the N1944E flight status page for this flight to view local times or setup timezone preferences in your user account.

Time Position Orientation Groundspeed Altitude Reporting Facility
EDT Latitude Longitude Course Direction KTS MPH feet Rate Location/Type
07:31AM 44.6156 -108.9575 13° North 130 150 8,100  Level Salt Lake Center
07:32AM 44.6542 -108.9414 17° North 135 155 9,100 900 Climbing Salt Lake Center
07:33AM 44.6942 -108.9303 11° North 141 162 10,000 900 Climbing Salt Lake Center
07:34AM 44.7339 -108.9169 13° North 143 165 11,000 1,140 Climbing Salt Lake Center
07:35AM 44.7731 -108.9017 15° North 146 168 12,300 1,020 Climbing Salt Lake Center
07:36AM 44.8075 -108.8917 12° North 139 160 13,100 360 Climbing Salt Lake Center
07:37AM 44.7865 -108.9262 13° North  Level Estimated
07:37AM 44.8469 -108.8828 North 137 158 13,100  Level Salt Lake Center
07:38AM 44.8919 -108.8667 14° North 149 171 13,100  Level Salt Lake Center
07:39AM 44.9356 -108.8508 14° North 156 180 13,100  Level Salt Lake Center
07:40AM 44.9778 -108.8353 15° North 158 182 13,100  Level Salt Lake Center
07:41AM 45.0200 -108.8206 14° North 157 181 13,100  Level Salt Lake Center
07:42AM 45.0617 -108.8039 16° North 157 181 13,100  Level Salt Lake Center
07:43AM 45.1033 -108.7897 13° North 155 178 13,100 -60 Level Salt Lake Center
07:44AM 45.1442 -108.7781 11° North 153 176 13,000 -480 Descending Salt Lake Center
07:45AM 45.1942 -108.7592 15° North 173 199 12,200 -780 Descending Salt Lake Center
07:46AM 45.2408 -108.7428 14° North 176 203 11,500 -840 Descending Salt Lake Center
07:47AM 45.2917 -108.7242 14° North 189 217 10,600 -780 Descending Salt Lake Center
07:48AM 45.3403 -108.7069 14° North 183 211 10,000 -300 Descending Salt Lake Center
07:49AM 45.3872 -108.6917 13° North 176 203 10,000 -300 Level Salt Lake Center
07:50AM 45.4350 -108.6747 14° North 178 205 9,400 -600 Descending Salt Lake Center
07:51AM 45.4875 -108.6556 14° North 183 211 8,800 -720 Descending Salt Lake Center
07:52AM 45.5383 -108.6378 14° North 188 216 8,000 -780 Descending Salt Lake Center
07:53AM 45.5867 -108.6208 14° North 182 209 7,300 -660 Descending Salt Lake Center
07:54AM 45.6328 -108.6033 15° North 175 201 6,700 -660 Descending Salt Lake Center
07:55AM 45.6761 -108.5675 30° Northeast 180 207 6,000 -900 Descending Salt Lake Center
07:56AM 45.7186 -108.5319 30° Northeast 179 206 5,000 -600 Descending Salt Lake Center
07:57AM 45.7564 -108.5042 27° Northeast 141 162 4,900 -480 Descending Salt Lake Center
07:58AM 45.7903 -108.4933 13° North 126 145 4,100 -660 Descending Salt Lake Center
07:59AM 45.8044 -108.5253 302° West 98 113 3,600 -540 Descending Salt Lake Center
08:01AM 45.8077 -108.5429 232° Southwest  Level Estimated
08:08AM 45.8077 -108.5429 19° North  Level Estimated